Miromar Lakes, Florida
Current Conditions -  °F | °C
As of 10:53 PM on Saturday 25 Oct 2014 (Local Time) from KRSW Reporting Station
Clear Clear  
Wind Chill: 67°   Ceiling: Unl
Heat Index: 67°   Visibility: 10mi
Dew Point: 58°   Wind: 3mph
Humidity: 73%   Direction: 10°N
Pressure: 29.97"   Gusts: NA
Location:  26.4783°N, 81.7306°W
Report Text: KRSW 260253Z 01003KT 10SM CLR 19/14 A2997 RMK AO2 SLP147 T01940144 51013
Loading
Personal Weather Stations






























Interactive Weather Map
Tropical Storm Tracking
New forecast layout! Learn more

10-Day Weather Forecast

Advertisements
Track Severe Weather on mobile